AirNav   Duncan Aviation - Near you to keep you flying
 
 1344 users online  

0GA2 Airnautique, Inc Airport
Hartwell, Georgia, USA

GOING TO HARTWELL?


FAA INFORMATION EFFECTIVE 04 NOVEMBER 2021

Location

FAA Identifier: 0GA2
Lat/Long: 34-22-56.1700N 082-56-43.7500W
34-22.936167N 082-56.729167W
34.3822694,-82.9454861
(estimated)
Elevation: 720 ft. / 219 m (estimated)
Variation: 03W (1985)
From city: 2 miles N of HARTWELL, GA
Time zone: UTC -4 (UTC -5 during Standard Time)
Zip code: 30643

Airport Operations

Airport use: Private use. Permission required prior to landing
Activation date: 08/1964
Control tower: no
ARTCC: ATLANTA CENTER
FSS: MACON FLIGHT SERVICE STATION
Attendance: UNATNDD
Wind indicator: yes
Segmented circle: no
Landing fee: yes

Airport Communications

WX AWOS-3PT at 18A (10 nm W): 118.625 (706-245-1097)
WX ASOS at AND (13 nm NE): 120.675 (864-226-9522)
WX ASOS at CEU (18 nm N): 119.275 (864-653-8855)
WX AWOS-3 at EBA (18 nm S): 118.15 (706-283-8133)

Nearby radio navigation aids

VOR radial/distance  VOR name  Freq  Var
ELWr254/8.3ELECTRIC CITY VORTAC108.6000E
ODFr137/25.6FOOTHILLS VOR/DME113.4000E
AHNr036/32.2ATHENS VOR/DME109.6000E
GRDr282/40.0GREENWOOD VORTAC115.5001W

Airport Services

Airframe service: NONE
Powerplant service: NONE

Runway Information

Runway 8/26

Dimensions: 2600 x 60 ft. / 792 x 18 m
Surface: turf
Runway edge lights: low intensity
RUNWAY 8  RUNWAY 26
Traffic pattern: leftleft
Obstructions: treestrees

Airport Ownership and Management from official FAA records

Ownership: Privately-owned
Owner: JANE HOLMES
222 WEST HOWELL ST
HARTWELL, GA 30643
Phone 706-376-9385
ADDL PHONE 706-376-8433.

Airport Operational Statistics

Aircraft based on the field: 3
Single engine airplanes: 3
    

Additional Remarks

FOR CD CTC ATLANTA ARTCC AT 770-210-7692.

Instrument Procedures

There are no published instrument procedures at 0GA2.

Some nearby airports with instrument procedures:

18A - Franklin-Hart Airport (10 nm W)
KAND - Anderson Regional Airport (13 nm NE)
KCEU - Oconee County Regional Airport (18 nm N)
KEBA - Elbert County Airport-Patz Field (18 nm S)
KTOC - Toccoa Airport-RG Letourneau Field (21 nm NW)
 
Loc | Ops | Rwys | IFR | FBO | Links
Com | Nav | Svcs | Stats | Notes
Area around 0GA2 (Airnautique, Inc Airport)
 
Road maps at: MapQuest Bing Google
 
Aerial photo
WARNING: Photo may not be current or correct
Aerial photo of 0GA2 (Airnautique, Inc Airport)
Photo by Ian Smith May 29, 2005

Do you have a better or more recent aerial photo of Airnautique, Inc Airport that you would like to share? If so, please send us your photo.

 
Sectional chart

 
Airport distance calculator
Flying to Airnautique, Inc Airport? Find the distance to fly.

From to 0GA2

Sunrise and sunset
Times for 28-Nov-2021
 Local
(UTC-5)
 Zulu
(UTC)
Morning civil twilight06:5111:51
Sunrise07:1812:18
Sunset17:2122:21
Evening civil twilight17:4922:49

Current date and time
Zulu (UTC)  28-Nov-2021 20:13:34
Local (UTC-5)  28-Nov-2021 15:13:34
 
METAR
K18A 
10nm W 
281950Z AUTO 26007KT 10SM CLR 17/00 A2991 RMK AO2 T01671001
KAND 
13nm NE 
281956Z AUTO 22006KT 10SM CLR 16/M02 A2991 RMK AO2 SLP125 T01561022
KCEU 
17nm N 
281954Z AUTO 24004KT 10SM CLR 15/M02 A2991 RMK AO2 SLP124 T01501022
TAF
KAND 
13nm NE 
281720Z 2818/2918 25006KT P6SM BKN250 FM290000 29006KT P6SM SCT250 FM291300 01007KT P6SM FEW250
NOTAMs
Click for the latest NOTAMs
NOTAMs are issued by the DoD/FAA and will open in a separate window not controlled by AirNav.

 

 
 

Would you like to see your business listed on this page?

 If your business provides an interesting product or service to pilots, flight crews, aircraft, or users of the Airnautique, Inc Airport, you should consider listing it here.  To start the listing process, click on the button below
 
Add a business
 

Other Pages about Airnautique, Inc Airport

Update a link
 
Copyright © AirNav, LLC. All rights reserved. Privacy Policy  Contact